Time;durP1;ratioP1;P1;durP2;ratioP2;P2;SDS_P1;SDS_P2;PMS_P1;PMS_P2;Temp;Humidity;BMP_temperature;BMP_pressure;BME280_temperature;BME280_humidity;BME280_pressure;Samples;Min_cycle;Max_cycle;Signal;HPM_P1;HPM_P2
2022/01/23 00:01:33;;;;;;;38.50;16.27;;;0.20;99.90;;;0.07;59.39;99732.81;5021294;28;20073;-83
2022/01/23 00:03:59;;;;;;;43.83;15.57;;;0.30;99.90;;;0.06;59.50;99741.00;5018954;28;20514;-83
2022/01/23 00:06:25;;;;;;;47.13;16.48;;;0.20;99.90;;;0.08;59.90;99731.81;4997345;28;20041;-83
2022/01/23 00:08:51;;;;;;;54.22;18.15;;;0.20;99.90;;;0.06;59.23;99735.69;5014170;28;20079;-83
2022/01/23 00:11:21;;;;;;;50.90;17.45;;;0.20;99.90;;;0.01;59.50;99732.72;4999625;28;20045;-83
2022/01/23 00:19:09;;;;;;;28.98;13.13;;;0.20;99.90;;;-0.01;59.46;99733.72;5036404;28;20041;-84
2022/01/23 00:21:37;;;;;;;40.88;14.75;;;0.20;99.90;;;-0.01;59.64;99730.22;5015145;28;20171;-84
2022/01/23 00:31:59;;;;;;;51.20;14.85;;;0.10;99.90;;;-0.12;59.70;99747.50;5026185;28;20107;-84
2022/01/23 00:34:25;;;;;;;38.40;15.88;;;0.10;99.90;;;-0.15;59.48;99747.03;5018546;28;20033;-84
2022/01/23 00:36:51;;;;;;;35.22;16.05;;;0.00;99.90;;;-0.13;59.27;99743.16;5019581;28;20079;-84
2022/01/23 00:39:17;;;;;;;41.72;16.67;;;0.10;99.90;;;-0.10;59.41;99740.16;5038329;28;20045;-84
2022/01/23 00:41:43;;;;;;;35.92;14.82;;;0.00;99.90;;;-0.06;59.90;99737.94;5006239;28;20108;-84
2022/01/23 00:44:09;;;;;;;42.38;17.20;;;0.00;99.90;;;-0.05;59.83;99737.78;5001033;28;20593;-84
2022/01/23 00:46:38;;;;;;;37.60;15.40;;;0.00;99.90;;;-0.03;59.37;99737.56;5016243;28;20068;-84
2022/01/23 00:51:37;;;;;;;41.92;15.60;;;0.00;99.90;;;-0.04;59.04;99738.59;5046588;28;20060;-84
2022/01/23 00:54:05;;;;;;;37.78;14.65;;;0.10;99.90;;;-0.11;59.02;99735.81;5038817;28;20711;-84
2022/01/23 00:56:32;;;;;;;45.83;16.25;;;0.00;99.90;;;-0.13;59.61;99737.00;5030144;28;20041;-84
2022/01/23 00:58:59;;;;;;;44.83;17.52;;;0.00;99.90;;;-0.07;59.44;99742.47;5017302;28;20052;-84
2022/01/23 01:01:25;;;;;;;40.25;14.05;;;0.00;99.90;;;-0.08;59.43;99748.78;5018138;28;20500;-84
2022/01/23 01:03:51;;;;;;;31.55;12.43;;;0.10;99.90;;;-0.09;58.98;99740.97;5002059;28;20105;-84
2022/01/23 01:06:17;;;;;;;36.30;13.88;;;0.10;99.90;;;-0.07;59.18;99730.97;5018833;28;20037;-84
2022/01/23 01:08:44;;;;;;;41.05;14.45;;;0.10;99.90;;;-0.08;59.01;99740.78;5016545;28;20086;-84
2022/01/23 01:11:39;;;;;;;44.08;16.13;;;0.10;99.90;;;-0.05;59.43;99745.78;5000229;28;20124;-84
2022/01/23 01:35:24;;;;;;;34.97;12.75;;;-0.10;99.90;;;-0.28;59.64;99727.16;5016621;28;20037;-84
2022/01/23 01:37:50;;;;;;;44.50;16.05;;;-0.20;99.90;;;-0.25;59.29;99729.47;5004404;28;20068;-84
2022/01/23 01:40:16;;;;;;;35.13;13.40;;;-0.10;99.90;;;-0.21;58.98;99735.25;5015913;28;20053;-84
2022/01/23 01:42:44;;;;;;;29.60;12.57;;;-0.10;99.90;;;-0.20;59.01;99736.94;5019318;28;20048;-83
2022/01/23 01:45:10;;;;;;;35.03;12.60;;;-0.10;99.90;;;-0.17;58.85;99733.06;5015432;28;20104;-83
2022/01/23 01:47:36;;;;;;;39.95;14.18;;;0.00;99.90;;;-0.18;59.21;99745.53;5001701;28;20049;-83
2022/01/23 01:50:03;;;;;;;35.25;14.85;;;-0.10;99.90;;;-0.17;58.53;99738.41;5029572;28;20144;-83
2022/01/23 01:52:30;;;;;;;35.30;11.45;;;-0.10;99.90;;;-0.21;58.98;99732.59;5001381;28;20124;-83
2022/01/23 01:55:03;;;;;;;56.42;15.05;;;-0.10;99.90;;;-0.20;59.09;99731.59;5012892;28;20048;-83
2022/01/23 01:57:36;;;;;;;32.72;13.00;;;-0.10;99.90;;;-0.24;58.85;99731.09;5001304;28;20044;-83
2022/01/23 02:08:25;;;;;;;38.13;14.50;;;-0.20;99.90;;;-0.31;58.76;99730.16;5023125;28;20045;-83
2022/01/23 02:10:59;;;;;;;34.80;12.05;;;-0.20;99.90;;;-0.31;59.04;99732.00;5008633;28;20044;-83
2022/01/23 02:13:37;;;;;;;34.95;12.27;;;-0.30;99.90;;;-0.29;58.75;99728.16;5021119;28;20098;-83
2022/01/23 02:56:47;;;;;;;27.60;12.00;;;-0.20;99.90;;;-0.35;58.64;99742.22;5031897;28;20504;-83
2022/01/23 03:02:03;;;;;;;33.58;11.82;;;-0.20;99.90;;;-0.47;59.24;99754.31;5015351;28;20133;-83
2022/01/23 03:04:32;;;;;;;34.65;12.90;;;-0.20;99.90;;;-0.49;59.03;99745.66;5019566;28;20045;-84
2022/01/23 03:07:15;;;;;;;28.25;11.98;;;-0.30;99.90;;;-0.46;59.03;99747.97;5013015;28;20541;-84
2022/01/23 03:28:37;;;;;;;28.83;14.43;;;-0.30;99.90;;;-0.43;59.28;99758.28;5036305;28;20450;-82
2022/01/23 03:31:22;;;;;;;36.72;15.50;;;-0.30;99.90;;;-0.40;59.25;99751.78;5004983;28;20033;-83
2022/01/23 03:33:48;;;;;;;39.88;15.77;;;-0.30;99.90;;;-0.38;58.96;99760.38;5003114;28;20033;-83
2022/01/23 03:36:14;;;;;;;40.33;16.30;;;-0.20;99.90;;;-0.40;59.10;99759.75;5016586;28;20500;-83
2022/01/23 03:38:40;;;;;;;37.42;15.73;;;-0.30;99.90;;;-0.48;58.96;99763.31;5001068;28;20064;-83
2022/01/23 03:41:06;;;;;;;36.20;16.17;;;-0.20;99.90;;;-0.48;59.57;99763.31;5001045;28;20125;-83
2022/01/23 03:43:35;;;;;;;41.78;15.70;;;-0.30;99.90;;;-0.49;59.53;99765.13;5000217;28;20045;-83
2022/01/23 03:51:15;;;;;;;41.63;16.98;;;-0.30;99.90;;;-0.58;59.10;99755.56;5034885;28;20126;-83
2022/01/23 03:53:41;;;;;;;49.13;17.30;;;-0.40;99.90;;;-0.61;58.90;99753.25;5012397;28;20051;-83
2022/01/23 03:56:08;;;;;;;43.50;17.13;;;-0.40;99.90;;;-0.59;59.17;99756.56;4997036;28;20072;-83
2022/01/23 03:58:34;;;;;;;46.72;16.27;;;-0.40;99.90;;;-0.53;59.11;99749.69;5033496;28;20034;-83
2022/01/23 04:01:00;;;;;;;44.22;18.67;;;-0.40;99.90;;;-0.53;59.36;99749.69;5015052;28;20045;-83
2022/01/23 04:03:27;;;;;;;51.00;19.70;;;-0.40;99.90;;;-0.54;59.09;99761.34;5016160;28;20121;-83
2022/01/23 04:05:52;;;;;;;44.45;18.45;;;-0.40;99.90;;;-0.61;59.21;99771.91;5015418;28;20349;-83
2022/01/23 04:08:19;;;;;;;48.00;18.35;;;-0.40;99.90;;;-0.60;58.81;99768.22;5004994;28;20091;-83
2022/01/23 04:10:46;;;;;;;37.58;17.95;;;-0.40;99.90;;;-0.55;59.12;99767.72;5004645;28;20098;-83
2022/01/23 04:13:24;;;;;;;51.53;19.67;;;-0.40;99.90;;;-0.60;59.06;99762.06;5019315;28;20065;-83
2022/01/23 04:16:10;;;;;;;41.88;19.52;;;-0.40;99.90;;;-0.68;59.14;99771.78;5025700;28;20041;-83
2022/01/23 04:31:44;;;;;;;42.67;20.13;;;-0.60;99.90;;;-0.90;60.06;99776.06;5026094;28;20247;-83
2022/01/23 04:45:48;;;;;;;56.05;22.45;;;-0.80;99.90;;;-0.94;60.19;99797.91;5022692;28;20099;-83
2022/01/23 04:48:55;;;;;;;51.17;23.60;;;-0.70;99.90;;;-0.98;60.01;99797.44;5022110;28;20041;-83
2022/01/23 04:59:47;;;;;;;57.30;22.88;;;-0.80;99.90;;;-1.03;60.49;99789.13;5023367;28;20064;-83
2022/01/23 05:02:46;;;;;;;;;;;-0.80;99.90;;;-1.12;60.12;99791.03;5009707;28;20435;-83
2022/01/23 05:04:59;;;;;;;56.80;23.33;;;-0.90;99.90;;;-1.07;60.46;99800.31;5038737;28;20457;-83
2022/01/23 05:07:29;;;;;;;46.45;19.65;;;-0.90;99.90;;;-1.11;60.62;99808.66;5018436;28;20141;-83
2022/01/23 05:09:55;;;;;;;54.53;22.83;;;-0.90;99.90;;;-1.09;60.60;99800.50;5004416;28;20045;-83
2022/01/23 05:12:26;;;;;;;65.85;21.38;;;-0.90;99.90;;;-1.07;60.58;99798.47;5004664;28;20064;-83
2022/01/23 05:14:52;;;;;;;59.72;22.77;;;-0.90;99.90;;;-1.07;60.26;99811.78;5036296;28;20045;-83
2022/01/23 05:17:18;;;;;;;48.40;22.58;;;-0.90;99.90;;;-1.03;60.51;99814.94;5020102;28;20060;-83
2022/01/23 05:19:45;;;;;;;54.67;24.05;;;-0.80;99.90;;;-0.98;60.57;99817.91;5017519;28;20116;-83
2022/01/23 05:22:27;;;;;;;43.05;20.35;;;-0.80;99.90;;;-0.96;60.38;99827.38;5016810;28;20616;-83
2022/01/23 05:24:57;;;;;;;58.33;21.92;;;-0.80;99.90;;;-0.94;60.48;99824.53;5007553;28;20158;-83
2022/01/23 05:27:26;;;;;;;57.55;23.58;;;-0.80;99.90;;;-0.98;60.22;99813.41;5023267;28;20057;-84
2022/01/23 05:29:52;;;;;;;46.65;21.52;;;-0.80;99.90;;;-1.06;60.44;99815.28;5020014;28;20049;-83
2022/01/23 05:32:20;;;;;;;61.53;22.45;;;-0.80;99.90;;;-0.98;60.28;99824.06;5017797;28;20040;-83
2022/01/23 05:34:47;;;;;;;54.38;22.55;;;-0.90;99.90;;;-0.99;60.61;99819.75;5003426;28;20419;-83
2022/01/23 05:37:13;;;;;;;64.70;23.42;;;-0.80;99.90;;;-1.00;60.21;99822.56;5005211;28;20321;-83
2022/01/23 05:39:39;;;;;;;63.47;24.30;;;-0.80;99.90;;;-0.99;60.42;99825.09;5033619;28;20090;-84
2022/01/23 05:42:09;;;;;;;54.20;23.02;;;-0.90;99.90;;;-0.99;60.68;99832.22;5018494;28;20126;-82
2022/01/23 05:44:36;;;;;;;61.33;22.52;;;-0.80;99.90;;;-0.90;60.48;99824.03;5024812;28;20377;-82
2022/01/23 05:47:06;;;;;;;46.72;19.63;;;-0.80;99.90;;;-0.88;60.45;99814.03;5022256;28;20040;-82
2022/01/23 05:49:32;;;;;;;57.95;23.88;;;-0.80;99.90;;;-0.90;60.30;99820.53;5005153;28;20051;-82
2022/01/23 05:51:58;;;;;;;47.33;21.45;;;-0.70;99.90;;;-0.89;60.22;99819.50;5018861;28;20044;-82
2022/01/23 05:54:24;;;;;;;50.30;20.88;;;-0.70;99.90;;;-0.95;59.90;99837.03;5017534;28;20431;-83
2022/01/23 05:56:50;;;;;;;45.95;21.90;;;-0.70;99.90;;;-0.95;60.26;99829.03;5005578;28;20418;-83
2022/01/23 05:59:16;;;;;;;50.72;22.38;;;-0.70;99.90;;;-0.96;60.12;99829.22;5020409;28;20136;-83
2022/01/23 06:01:43;;;;;;;50.10;20.95;;;-0.70;99.90;;;-0.97;60.36;99825.72;5033518;28;20101;-82
2022/01/23 06:04:09;;;;;;;50.03;22.92;;;-0.70;99.90;;;-0.99;60.54;99830.41;5037205;28;20058;-82
2022/01/23 06:06:35;;;;;;;59.55;21.77;;;-0.70;99.90;;;-0.99;60.15;99816.25;5017219;28;20460;-82
2022/01/23 06:09:01;;;;;;;62.45;22.48;;;-0.70;99.90;;;-0.97;60.53;99820.38;5022430;28;20044;-83
2022/01/23 06:11:27;;;;;;;58.33;21.52;;;-0.80;99.90;;;-0.94;60.26;99819.22;5001499;28;20037;-83
2022/01/23 06:13:53;;;;;;;58.92;21.30;;;-0.80;99.90;;;-0.97;60.47;99822.22;5003383;28;20041;-82
2022/01/23 06:16:19;;;;;;;56.63;22.55;;;-0.70;99.90;;;-1.01;60.32;99826.25;5016460;28;20037;-83
2022/01/23 06:18:46;;;;;;;50.83;21.08;;;-0.70;99.90;;;-1.01;60.46;99824.41;5005805;28;20041;-82
2022/01/23 06:21:15;;;;;;;52.38;21.48;;;-0.70;99.90;;;-0.98;60.72;99831.22;5005173;28;20470;-82
2022/01/23 06:23:42;;;;;;;54.58;23.30;;;-0.80;99.90;;;-0.94;60.91;99845.84;5020819;28;20041;-82
2022/01/23 06:26:08;;;;;;;51.85;22.83;;;-0.70;99.90;;;-0.92;60.78;99846.50;5033125;28;20594;-82
2022/01/23 06:28:58;;;;;;;52.22;23.05;;;-0.70;99.90;;;-0.88;60.29;99845.16;5002849;28;20044;-82
2022/01/23 06:31:24;;;;;;;58.45;21.75;;;-0.60;99.90;;;-0.84;60.08;99842.97;5039310;28;20041;-82
2022/01/23 06:33:50;;;;;;;62.47;22.88;;;-0.60;99.90;;;-0.77;59.97;99849.28;4997233;28;20038;-82
2022/01/23 06:36:16;;;;;;;47.28;24.00;;;-0.60;99.90;;;-0.81;60.06;99851.47;5012644;28;20045;-83
2022/01/23 06:38:42;;;;;;;63.38;24.30;;;-0.60;99.90;;;-0.80;60.31;99855.78;5003169;28;20480;-82
2022/01/23 06:41:08;;;;;;;63.15;25.70;;;-0.50;99.90;;;-0.82;60.20;99870.28;5001177;28;20144;-82
2022/01/23 06:43:34;;;;;;;56.28;25.38;;;-0.50;99.90;;;-0.74;59.91;99884.41;4997712;28;20106;-82
2022/01/23 06:46:00;;;;;;;61.30;24.08;;;-0.50;99.90;;;-0.67;59.94;99874.69;5051686;28;20040;-81
2022/01/23 06:48:26;;;;;;;61.22;24.27;;;-0.40;99.90;;;-0.65;59.80;99885.19;5013608;28;20455;-82
2022/01/23 06:50:52;;;;;;;52.38;22.80;;;-0.40;99.90;;;-0.67;59.56;99879.19;5033216;28;20041;-81
2022/01/23 06:53:18;;;;;;;49.42;23.38;;;-0.40;99.90;;;-0.62;59.82;99874.16;5018825;28;20444;-82
2022/01/23 06:55:44;;;;;;;57.75;24.92;;;-0.30;99.90;;;-0.57;59.95;99882.47;5014690;28;20114;-82
2022/01/23 06:58:10;;;;;;;59.03;24.02;;;-0.30;99.90;;;-0.54;59.65;99878.63;5032614;28;20088;-82
2022/01/23 07:00:36;;;;;;;63.22;26.83;;;-0.20;99.90;;;-0.49;59.88;99882.41;5015520;28;20044;-82
2022/01/23 07:03:02;;;;;;;65.00;27.00;;;-0.20;99.90;;;-0.44;59.49;99876.56;5015889;28;20079;-82
2022/01/23 07:05:29;;;;;;;66.72;27.63;;;-0.10;99.90;;;-0.37;59.73;99892.69;5016036;28;20075;-82
2022/01/23 07:07:55;;;;;;;65.70;26.13;;;-0.10;99.90;;;-0.37;59.29;99890.03;5021024;28;20036;-82
2022/01/23 07:10:21;;;;;;;58.65;27.73;;;-0.10;99.90;;;-0.22;59.01;99889.09;5018474;28;20597;-82
2022/01/23 07:12:47;;;;;;;67.50;26.05;;;0.00;99.90;;;-0.14;58.94;99898.88;5018615;28;20037;-82
2022/01/23 07:15:14;;;;;;;69.50;28.55;;;0.20;99.90;;;-0.08;58.47;99892.00;5030813;28;20045;-82
2022/01/23 07:17:41;;;;;;;63.40;27.15;;;0.20;99.90;;;-0.04;58.80;99894.13;4997851;28;20562;-82
2022/01/23 07:20:07;;;;;;;66.40;28.73;;;0.30;99.90;;;0.01;58.50;99900.78;5000831;28;20045;-81
2022/01/23 07:22:33;;;;;;;72.68;29.88;;;0.30;99.90;;;-0.01;58.45;99901.78;5015772;28;20037;-82
2022/01/23 07:25:02;;;;;;;63.92;26.42;;;0.30;99.90;;;0.02;58.62;99905.09;5013212;28;20045;-81
2022/01/23 07:27:31;;;;;;;64.18;28.05;;;0.30;99.90;;;0.10;58.32;99910.38;5030559;28;20064;-82
2022/01/23 07:29:57;;;;;;;63.28;29.02;;;0.40;99.90;;;0.10;58.26;99913.88;5002627;28;20068;-82
2022/01/23 07:32:23;;;;;;;59.30;28.95;;;0.50;99.90;;;0.05;58.36;99926.94;5015942;28;20041;-81
2022/01/23 07:34:49;;;;;;;64.35;29.25;;;0.40;99.90;;;0.08;58.14;99928.41;5002242;28;20373;-82
2022/01/23 07:37:15;;;;;;;65.97;29.23;;;0.40;99.90;;;0.03;58.60;99920.13;4995681;28;20060;-82
2022/01/23 07:39:41;;;;;;;65.88;29.20;;;0.40;99.90;;;-0.01;58.86;99922.28;5038570;28;20079;-82
2022/01/23 07:42:08;;;;;;;69.47;29.95;;;0.40;99.90;;;0.05;58.80;99924.25;5000822;28;20043;-82
2022/01/23 07:44:34;;;;;;;78.47;30.55;;;0.40;99.90;;;0.06;58.10;99933.09;5029655;28;20068;-81
2022/01/23 07:47:00;;;;;;;67.43;31.23;;;0.50;99.90;;;0.10;58.38;99939.72;5010540;28;20072;-82
2022/01/23 07:49:26;;;;;;;65.80;30.20;;;0.50;99.90;;;0.22;58.49;99939.13;5051868;28;20111;-81
2022/01/23 07:51:52;;;;;;;66.50;29.92;;;0.50;99.90;;;0.28;58.16;99942.06;5004073;28;20420;-82
2022/01/23 07:54:18;;;;;;;71.22;32.78;;;0.60;99.90;;;0.32;58.19;99944.22;5012831;28;20049;-82
2022/01/23 07:56:44;;;;;;;73.18;30.63;;;0.70;99.90;;;0.38;58.28;99940.00;5027044;28;20223;-82
2022/01/23 07:59:11;;;;;;;72.90;32.42;;;0.70;99.90;;;0.45;57.38;99948.94;5020863;28;20045;-82
2022/01/23 08:01:40;;;;;;;62.40;29.70;;;0.80;99.90;;;0.42;57.66;99955.47;5033576;28;20037;-82
2022/01/23 08:04:07;;;;;;;72.15;27.52;;;0.80;99.90;;;0.38;57.61;99969.34;5005969;28;20033;-82
2022/01/23 08:06:40;;;;;;;71.60;32.40;;;0.80;99.90;;;0.42;58.11;99970.66;5014143;28;20397;-82
2022/01/23 08:09:08;;;;;;;68.72;30.77;;;0.80;99.90;;;0.33;57.75;99979.75;5034442;28;20048;-82
2022/01/23 08:11:34;;;;;;;77.82;32.08;;;0.80;99.90;;;0.45;57.87;99986.31;5049436;28;20534;-82
2022/01/23 08:14:00;;;;;;;70.95;29.55;;;0.80;99.90;;;0.57;57.46;99984.06;5019849;28;20037;-82
2022/01/23 08:16:26;;;;;;;72.90;29.08;;;0.90;99.90;;;0.71;57.07;99985.09;5013427;28;20468;-82
2022/01/23 08:18:52;;;;;;;70.93;31.05;;;1.00;99.90;;;0.75;57.30;99986.41;5021567;28;20065;-82
2022/01/23 08:21:18;;;;;;;71.50;31.40;;;1.10;99.90;;;0.91;57.56;99996.13;5004760;28;20040;-82
2022/01/23 08:23:44;;;;;;;63.22;30.15;;;1.30;99.90;;;1.02;57.54;99999.19;5019343;28;20032;-82
2022/01/23 08:26:10;;;;;;;71.13;29.65;;;1.40;99.90;;;1.03;56.54;100006.19;5003176;28;20140;-82
2022/01/23 08:28:36;;;;;;;61.75;28.13;;;1.50;99.90;;;1.13;56.58;100005.91;5013549;28;20045;-82
2022/01/23 08:31:04;;;;;;;67.03;29.45;;;1.60;99.90;;;1.27;56.04;100009.59;5001095;28;20504;-81
2022/01/23 08:33:30;;;;;;;67.90;29.70;;;1.70;99.90;;;1.34;55.21;100013.22;5031313;28;20127;-82
2022/01/23 08:35:57;;;;;;;69.00;29.17;;;1.80;99.90;;;1.32;55.63;100017.91;5031863;28;20120;-82
2022/01/23 08:38:24;;;;;;;75.85;30.58;;;1.80;99.90;;;1.40;55.71;100009.81;5010885;28;20040;-82
2022/01/23 08:43:36;;;;;;;54.40;27.05;;;2.00;99.90;;;1.59;55.03;100008.41;5002654;28;20115;-82
2022/01/23 08:46:03;;;;;;;72.90;29.42;;;2.00;99.90;;;1.69;54.24;100008.97;5015254;28;20096;-82
2022/01/23 08:48:29;;;;;;;64.38;30.10;;;2.10;99.90;;;1.85;54.17;100005.25;5048939;28;20067;-82
2022/01/23 08:50:55;;;;;;;67.75;29.48;;;2.30;99.90;;;2.04;53.64;100006.50;5029324;28;20044;-82
2022/01/23 08:53:21;;;;;;;70.78;29.55;;;2.40;99.90;;;2.06;53.63;100017.00;5017057;28;20044;-81
2022/01/23 08:55:50;;;;;;;70.95;30.40;;;2.50;99.90;;;1.96;53.13;100030.72;5012936;28;20116;-82
2022/01/23 08:58:18;;;;;;;60.80;28.95;;;2.50;99.90;;;2.00;53.51;100025.78;5038325;28;20048;-82
2022/01/23 09:00:44;;;;;;;67.85;28.25;;;2.40;99.90;;;1.85;53.38;100020.47;5015835;28;20511;-82
2022/01/23 09:03:13;;;;;;;73.70;30.30;;;2.30;99.90;;;1.89;54.37;100022.59;4999727;28;20037;-81
2022/01/23 09:05:38;;;;;;;57.28;29.73;;;2.30;99.90;;;1.89;54.44;100027.94;5032903;28;20128;-81
2022/01/23 09:08:05;;;;;;;71.40;33.13;;;2.40;99.90;;;1.85;54.11;100026.63;5035367;28;20124;-81
2022/01/23 09:10:40;;;;;;;82.88;33.13;;;2.40;99.90;;;1.84;53.88;100035.69;5016650;28;20044;-81
2022/01/23 09:13:28;;;;;;;76.18;32.63;;;2.40;99.90;;;1.83;54.26;100028.69;5033856;28;20112;-81
2022/01/23 09:15:54;;;;;;;69.75;31.83;;;2.40;99.90;;;1.89;53.86;100035.13;5022853;28;20056;-81
2022/01/23 09:18:20;;;;;;;79.18;34.15;;;2.40;99.90;;;1.88;54.05;100036.13;5017085;28;20047;-81
2022/01/23 09:20:46;;;;;;;68.13;30.55;;;2.40;99.90;;;1.98;53.63;100028.66;5013304;28;20069;-81
2022/01/23 09:23:11;;;;;;;65.28;30.55;;;2.40;99.90;;;2.00;53.65;100039.19;5027330;28;20168;-81
2022/01/23 09:25:37;;;;;;;71.03;32.25;;;2.50;99.90;;;2.00;54.05;100034.66;5015772;28;20044;-81
2022/01/23 09:28:04;;;;;;;67.30;31.27;;;2.50;99.90;;;2.24;53.67;100028.16;5014851;28;20431;-81
2022/01/23 09:30:35;;;;;;;74.25;34.60;;;2.60;99.90;;;2.56;52.86;100024.13;5014325;28;20046;-82
2022/01/23 09:33:02;;;;;;;67.43;31.13;;;3.00;99.90;;;2.74;52.25;100012.97;5014532;28;20450;-81
2022/01/23 09:35:28;;;;;;;59.47;26.83;;;3.20;99.90;;;2.94;51.33;100021.16;5036929;28;20049;-82
2022/01/23 09:37:54;;;;;;;61.67;27.02;;;3.30;99.90;;;3.03;51.27;100029.91;5054950;28;20068;-82
2022/01/23 09:40:20;;;;;;;64.38;28.13;;;3.50;99.90;;;3.14;50.88;100025.88;5022298;28;20041;-82
2022/01/23 09:42:54;;;;;;;75.53;28.27;;;3.60;99.90;;;3.30;50.79;100020.19;5001742;28;20045;-82
2022/01/23 09:45:20;;;;;;;57.25;25.77;;;3.80;99.90;;;3.43;50.08;100027.50;5040605;28;20045;-82
2022/01/23 09:47:47;;;;;;;57.30;25.15;;;3.90;99.90;;;3.40;49.96;100033.25;5021519;28;20068;-82
2022/01/23 09:50:14;;;;;;;61.17;26.80;;;3.90;99.90;;;3.41;50.44;100027.69;5020403;28;20057;-81
2022/01/23 09:52:40;;;;;;;59.38;25.45;;;3.90;99.90;;;3.40;50.58;100034.06;5037403;28;20499;-82
2022/01/23 09:55:11;;;;;;;53.92;25.00;;;3.90;99.90;;;3.49;50.02;100024.03;5015884;28;20041;-83
2022/01/23 09:57:45;;;;;;;65.70;28.27;;;4.00;99.90;;;3.63;49.63;100027.59;5018116;28;20049;-83
2022/01/23 10:00:18;;;;;;;59.55;24.80;;;4.10;99.90;;;3.69;49.04;100030.34;5016893;28;20415;-83
2022/01/23 10:02:44;;;;;;;57.28;27.58;;;4.20;99.90;;;3.76;49.18;100029.53;5005418;28;20382;-83
2022/01/23 10:05:10;;;;;;;54.90;23.98;;;4.20;99.90;;;3.83;49.34;100030.41;5018687;28;20040;-83
2022/01/23 10:07:38;;;;;;;50.22;26.10;;;4.30;99.90;;;3.87;49.01;100023.63;5004601;28;20040;-83
2022/01/23 10:10:16;;;;;;;50.03;24.27;;;4.40;99.80;;;4.04;48.98;100029.44;5015325;28;20083;-83
2022/01/23 10:12:56;;;;;;;50.22;23.30;;;4.60;99.70;;;4.19;48.47;100038.19;5037224;28;20156;-81
2022/01/23 10:15:27;;;;;;;59.15;25.52;;;4.70;99.00;;;4.31;48.01;100028.50;5043361;28;20543;-81
2022/01/23 10:17:54;;;;;;;50.42;23.83;;;4.90;98.60;;;4.47;47.61;100024.59;5027498;28;20064;-81
2022/01/23 10:20:20;;;;;;;59.58;27.25;;;5.00;98.40;;;4.70;48.13;100016.16;5041553;28;20558;-81
2022/01/23 10:22:49;;;;;;;55.42;22.00;;;5.20;98.60;;;4.85;46.94;100013.28;5047877;28;20069;-81
2022/01/23 10:25:22;;;;;;;34.83;15.45;;;5.40;97.60;;;4.98;45.72;100015.16;5034400;28;20119;-81
2022/01/23 10:27:56;;;;;;;38.90;15.75;;;5.60;96.70;;;5.05;45.39;100021.34;5003927;28;20202;-81
2022/01/23 10:30:26;;;;;;;33.60;16.27;;;5.60;96.20;;;4.92;45.62;100024.88;5052689;28;20045;-81
2022/01/23 10:33:11;;;;;;;35.00;15.68;;;5.50;95.90;;;4.92;45.01;100029.44;5012836;28;20393;-80
2022/01/23 10:36:11;;;;;;;32.30;14.50;;;5.50;95.50;;;4.80;45.98;100023.81;5038098;28;20119;-82
2022/01/23 10:38:44;;;;;;;37.55;15.60;;;5.50;95.60;;;4.67;45.91;100023.81;5050876;28;20036;-81
2022/01/23 10:49:49;;;;;;;31.92;15.68;;;5.10;95.80;;;4.88;45.94;100029.00;5036394;28;20041;-82
2022/01/23 10:52:41;;;;;;;39.15;14.68;;;5.20;96.10;;;4.98;45.53;100026.72;5021549;28;20057;-82
2022/01/23 10:55:27;;;;;;;29.38;14.77;;;5.40;95.50;;;5.10;44.95;100026.13;5068575;28;20049;-82
2022/01/23 10:57:58;;;;;;;34.92;16.50;;;5.50;94.80;;;5.06;44.37;100019.47;5035498;28;20045;-82
2022/01/23 11:00:29;;;;;;;32.67;15.75;;;5.60;94.10;;;5.11;45.59;100014.31;5018734;28;20056;-82
2022/01/23 11:02:57;;;;;;;37.92;15.93;;;5.60;94.80;;;5.31;45.39;100015.13;5033886;28;20040;-82
2022/01/23 11:05:33;;;;;;;40.78;16.73;;;5.80;94.70;;;5.34;44.52;100017.41;5033375;28;20530;-82
2022/01/23 11:07:59;;;;;;;36.20;14.98;;;5.80;94.20;;;5.29;45.12;100011.81;5051258;28;20044;-82
2022/01/23 11:10:25;;;;;;;29.38;14.85;;;5.90;94.50;;;5.30;43.67;100010.78;5031999;28;20480;-85
2022/01/23 11:18:14;;;;;;;35.17;14.25;;;5.90;92.90;;;5.20;43.91;100019.28;5019506;28;20481;-82
2022/01/23 11:20:47;;;;;;;33.10;14.82;;;5.80;92.80;;;5.16;44.50;100011.81;5026349;28;20045;-82
2022/01/23 11:23:22;;;;;;;29.77;13.02;;;5.80;92.90;;;5.48;44.59;100012.00;4996661;28;20044;-83
2022/01/23 11:25:57;;;;;;;39.63;15.88;;;5.70;93.50;;;5.51;43.52;100014.25;5007989;28;20087;-82
2022/01/23 11:28:33;;;;;;;37.65;15.85;;;5.90;92.90;;;5.46;43.46;100011.38;5047223;28;20128;-82
2022/01/23 11:30:59;;;;;;;33.38;15.25;;;5.90;92.60;;;5.23;43.33;100018.84;5027839;28;20051;-82
2022/01/23 11:33:25;;;;;;;37.83;14.77;;;5.80;92.40;;;5.08;43.87;100018.25;5013895;28;20041;-83
2022/01/23 11:35:51;;;;;;;40.30;16.27;;;5.60;92.50;;;4.96;44.46;100023.44;4993468;28;20040;-83
2022/01/23 11:38:20;;;;;;;30.95;15.43;;;5.50;92.90;;;4.88;45.36;100015.56;5056566;28;20532;-82
2022/01/23 11:54:51;;;;;;;39.60;15.52;;;5.80;93.40;;;5.17;43.99;100016.19;5018724;28;20583;-82
2022/01/23 11:57:37;;;;;;;33.33;15.75;;;5.70;92.50;;;4.92;46.15;100016.81;5027332;28;20457;-83
2022/01/23 12:00:11;;;;;;;38.05;15.13;;;5.50;93.60;;;4.99;45.70;100025.69;5046495;28;20074;-83
2022/01/23 12:02:41;;;;;;;27.98;13.65;;;5.50;93.90;;;5.14;45.32;100028.19;5001020;28;20120;-83
2022/01/23 12:05:18;;;;;;;28.10;14.55;;;5.60;93.30;;;5.12;44.73;100032.13;5016352;28;20169;-83
2022/01/23 12:07:46;;;;;;;32.30;15.25;;;5.60;92.90;;;5.00;44.59;100023.84;5045123;28;20045;-83
2022/01/23 12:10:30;;;;;;;34.97;14.07;;;5.50;92.70;;;5.01;45.12;100036.22;5014056;28;20135;-83
2022/01/23 12:18:48;;;;;;;35.95;15.05;;;5.40;93.50;;;5.13;45.15;100041.84;4999612;28;20065;-83
2022/01/23 12:21:30;;;;;;;39.42;15.30;;;5.50;93.50;;;4.99;44.99;100041.03;5013216;28;20061;-83
2022/01/23 12:24:01;;;;;;;39.63;16.30;;;5.50;93.20;;;4.88;46.29;100038.94;5013439;28;20091;-83
2022/01/23 12:26:27;;;;;;;42.35;17.10;;;5.40;94.00;;;4.90;46.19;100036.88;5031385;28;20131;-83
2022/01/23 12:28:53;;;;;;;37.10;14.82;;;5.40;94.00;;;4.78;45.46;100029.44;5015221;28;20476;-82
2022/01/23 12:31:24;;;;;;;35.03;15.60;;;5.30;93.50;;;4.77;46.65;100035.00;4997878;28;20044;-83
2022/01/23 12:33:57;;;;;;;31.27;14.47;;;5.20;94.20;;;4.67;47.32;100038.09;5014707;28;20044;-83
2022/01/23 12:36:26;;;;;;;33.83;14.88;;;5.10;94.60;;;4.57;46.64;100037.66;5019410;28;20048;-83
2022/01/23 12:38:54;;;;;;;39.75;17.20;;;5.10;94.10;;;4.65;47.04;100036.63;5019855;28;20068;-83
2022/01/23 12:41:34;;;;;;;33.90;14.82;;;5.00;94.50;;;4.74;47.05;100035.41;5019058;28;20434;-82
2022/01/23 12:44:25;;;;;;;32.28;13.60;;;5.10;94.70;;;4.85;47.07;100045.53;5033384;28;20108;-83
2022/01/23 12:47:03;;;;;;;42.00;16.83;;;5.10;94.80;;;4.89;46.17;100048.66;5051999;28;20040;-83
2022/01/23 12:49:33;;;;;;;51.97;19.27;;;5.30;94.00;;;4.76;45.71;100046.78;5019943;28;20534;-83
2022/01/23 12:52:05;;;;;;;43.70;19.55;;;5.30;93.60;;;4.85;46.17;100047.41;5016376;28;20037;-83
2022/01/23 12:54:32;;;;;;;;;;;5.30;94.10;;;4.85;45.97;100050.09;5050391;28;20503;-83
2022/01/23 12:57:10;;;;;;;37.63;14.52;;;5.30;93.90;;;4.76;46.01;100046.78;5059810;28;19931;-83
2022/01/23 12:59:37;;;;;;;23.63;12.00;;;5.20;94.00;;;4.68;46.93;100055.03;5026774;28;20041;-86
2022/01/23 13:02:10;;;;;;;36.25;16.23;;;5.10;94.40;;;4.61;47.29;100052.34;5025107;28;20040;-84
2022/01/23 13:04:46;;;;;;;29.98;13.95;;;5.10;95.00;;;4.48;47.69;100055.84;5060388;28;20037;-83
2022/01/23 13:07:32;;;;;;;28.98;14.98;;;5.00;94.80;;;4.35;48.20;100050.41;5014487;28;20500;-85
2022/01/23 13:10:09;;;;;;;30.85;13.05;;;4.90;95.00;;;4.02;48.13;100051.16;5048615;28;20108;-84
2022/01/23 13:26:56;;;;;;;38.28;17.13;;;3.80;96.80;;;3.42;50.23;100044.63;5044127;28;20159;-84
2022/01/23 13:32:43;;;;;;;33.95;14.75;;;3.60;98.00;;;3.24;51.89;100058.53;5044598;28;20052;-82
2022/01/23 13:35:08;;;;;;;33.78;15.55;;;3.50;98.20;;;3.06;52.37;100050.97;5029020;28;20053;-84
2022/01/23 13:37:46;;;;;;;34.33;16.70;;;3.40;99.00;;;2.93;52.63;100050.88;5023460;28;20072;-83
2022/01/23 13:40:23;;;;;;;44.80;17.85;;;3.20;99.20;;;2.82;53.78;100053.03;5025580;28;20069;-84